createdAt,value
2023-01-27T00:00:54.012Z,15.68
2023-01-27T00:03:21.345Z,14.60
2023-01-27T00:05:49.394Z,15.30
2023-01-27T00:08:17.530Z,15.07
2023-01-27T00:10:44.682Z,14.55
2023-01-27T00:13:27.480Z,14.60
2023-01-27T00:15:57.072Z,14.65
2023-01-27T00:18:27.341Z,15.48
2023-01-27T00:21:12.722Z,15.18
2023-01-27T00:23:58.782Z,14.82
2023-01-27T00:26:25.785Z,14.18
2023-01-27T00:28:52.870Z,15.25
2023-01-27T00:31:38.274Z,14.05
2023-01-27T00:34:12.262Z,13.00
2023-01-27T00:36:42.412Z,13.48
2023-01-27T00:39:12.272Z,14.77
2023-01-27T00:41:40.426Z,14.18
2023-01-27T00:44:13.384Z,14.10
2023-01-27T00:46:42.584Z,14.07
2023-01-27T00:49:11.302Z,14.25
2023-01-27T00:51:39.966Z,14.05
2023-01-27T00:54:10.293Z,15.13
2023-01-27T00:56:38.402Z,16.00
2023-01-27T00:59:06.008Z,14.25
2023-01-27T01:01:37.991Z,14.98
2023-01-27T01:04:05.110Z,13.75
2023-01-27T01:06:32.045Z,14.65
2023-01-27T01:08:59.275Z,14.55
2023-01-27T01:11:26.425Z,14.95
2023-01-27T01:13:56.061Z,14.55
2023-01-27T01:16:25.070Z,15.35
2023-01-27T01:18:52.178Z,14.95
2023-01-27T01:21:20.480Z,14.60
2023-01-27T01:23:47.570Z,15.23
2023-01-27T01:26:16.667Z,13.85
2023-01-27T01:28:45.148Z,14.85
2023-01-27T01:31:16.419Z,14.27
2023-01-27T01:33:43.517Z,14.98
2023-01-27T01:36:13.430Z,15.20
2023-01-27T01:38:40.583Z,14.80
2023-01-27T01:41:11.623Z,14.73
2023-01-27T01:43:40.258Z,15.13
2023-01-27T01:46:10.451Z,14.15
2023-01-27T01:48:47.464Z,15.27
2023-01-27T01:51:44.721Z,15.60
2023-01-27T01:54:31.657Z,13.95
2023-01-27T01:57:05.228Z,14.20
2023-01-27T01:59:39.660Z,14.27
2023-01-27T02:02:11.281Z,14.52
2023-01-27T02:04:44.889Z,13.77
2023-01-27T02:07:42.848Z,15.07
2023-01-27T02:10:12.029Z,13.88
2023-01-27T02:12:39.389Z,16.73
2023-01-27T02:15:09.339Z,15.55
2023-01-27T02:17:36.694Z,15.88
2023-01-27T02:20:24.904Z,16.10
2023-01-27T02:23:09.536Z,16.02
2023-01-27T02:25:37.534Z,15.32
2023-01-27T02:28:07.745Z,15.30
2023-01-27T02:30:35.688Z,15.57
2023-01-27T02:33:14.240Z,15.77
2023-01-27T02:35:51.969Z,15.05
2023-01-27T02:38:19.864Z,15.15
2023-01-27T02:40:52.535Z,13.73
2023-01-27T02:43:19.519Z,14.65
2023-01-27T02:45:47.724Z,14.38
2023-01-27T02:48:15.385Z,14.52
2023-01-27T02:50:42.273Z,13.98
2023-01-27T02:53:09.339Z,14.43
2023-01-27T02:55:37.006Z,13.93
2023-01-27T02:58:04.333Z,14.15
2023-01-27T03:00:43.596Z,13.95
2023-01-27T03:03:12.680Z,14.43
2023-01-27T03:05:41.162Z,14.48
2023-01-27T03:08:08.569Z,14.32
2023-01-27T03:10:35.868Z,14.70
2023-01-27T03:13:02.868Z,14.20
2023-01-27T03:15:48.491Z,14.25
2023-01-27T03:18:18.495Z,14.75
2023-01-27T03:20:47.618Z,13.55
2023-01-27T03:23:16.809Z,14.73
2023-01-27T03:25:48.781Z,14.73
2023-01-27T03:28:16.177Z,13.15
2023-01-27T03:31:07.298Z,14.23
2023-01-27T03:33:43.261Z,13.20
2023-01-27T03:36:51.061Z,13.65
2023-01-27T03:39:36.717Z,13.80
2023-01-27T03:42:22.986Z,14.10
2023-01-27T03:45:09.890Z,14.00
2023-01-27T03:47:37.004Z,13.95
2023-01-27T03:50:11.259Z,13.75
2023-01-27T03:52:38.427Z,15.05
2023-01-27T03:55:07.141Z,14.52
2023-01-27T03:57:34.055Z,14.07
2023-01-27T04:00:01.025Z,14.75
2023-01-27T04:02:46.634Z,14.07
2023-01-27T04:05:32.188Z,13.52
2023-01-27T04:07:59.168Z,14.80
2023-01-27T04:10:26.032Z,14.93
2023-01-27T04:12:53.036Z,14.55
2023-01-27T04:15:20.728Z,15.10
2023-01-27T04:17:47.624Z,14.65
2023-01-27T04:20:14.838Z,14.43
2023-01-27T04:22:41.794Z,14.43
2023-01-27T04:25:08.980Z,14.00
2023-01-27T04:27:36.025Z,14.07
2023-01-27T04:30:03.146Z,14.50
2023-01-27T04:32:30.840Z,14.70
2023-01-27T04:34:57.896Z,14.85
2023-01-27T04:37:24.857Z,14.75
2023-01-27T04:39:51.799Z,13.95
2023-01-27T04:42:18.830Z,14.60
2023-01-27T04:44:45.682Z,15.43
2023-01-27T04:47:13.039Z,15.23
2023-01-27T04:49:40.203Z,14.10
2023-01-27T04:52:07.288Z,15.07
2023-01-27T04:54:34.224Z,14.88
2023-01-27T04:57:03.746Z,14.98
2023-01-27T04:59:30.820Z,14.77
2023-01-27T05:01:58.091Z,15.07
2023-01-27T05:04:26.815Z,14.45
2023-01-27T05:06:54.321Z,14.75
2023-01-27T05:09:21.267Z,14.63
2023-01-27T05:11:48.187Z,15.32
2023-01-27T05:14:15.176Z,14.68
2023-01-27T05:16:42.107Z,14.80
2023-01-27T05:19:09.403Z,14.32
2023-01-27T05:21:36.513Z,15.00
2023-01-27T05:24:03.727Z,14.35
2023-01-27T05:26:30.823Z,14.18
2023-01-27T05:28:58.764Z,13.73
2023-01-27T05:31:31.959Z,14.50
2023-01-27T05:34:02.722Z,13.60
2023-01-27T05:36:30.557Z,13.48
2023-01-27T05:39:00.112Z,13.82
2023-01-27T05:41:31.164Z,13.90
2023-01-27T05:43:58.071Z,14.68
2023-01-27T05:46:28.051Z,14.13
2023-01-27T05:48:57.392Z,13.65
2023-01-27T05:51:26.515Z,13.75
2023-01-27T05:53:55.304Z,13.35
2023-01-27T05:56:23.356Z,13.32
2023-01-27T05:58:50.268Z,15.00
2023-01-27T06:01:20.136Z,14.10
2023-01-27T06:03:48.520Z,13.02
2023-01-27T06:06:17.925Z,12.40
2023-01-27T06:08:45.882Z,13.68
2023-01-27T06:11:13.680Z,11.52
2023-01-27T06:13:41.171Z,12.02
2023-01-27T06:16:10.934Z,12.68
2023-01-27T06:18:39.411Z,11.40
2023-01-27T06:21:09.129Z,11.40
2023-01-27T06:23:36.447Z,11.32
2023-01-27T06:26:15.911Z,11.27
2023-01-27T06:28:43.295Z,11.02
2023-01-27T06:31:18.395Z,11.45
2023-01-27T06:33:45.823Z,11.88
2023-01-27T06:36:15.177Z,12.02
2023-01-27T06:38:42.611Z,12.15
2023-01-27T06:41:09.726Z,10.90
2023-01-27T06:43:39.716Z,12.32
2023-01-27T06:46:06.792Z,10.95
2023-01-27T06:48:34.522Z,10.95
2023-01-27T06:51:01.740Z,11.23
2023-01-27T06:53:28.770Z,11.25
2023-01-27T06:55:58.367Z,10.50
2023-01-27T06:58:26.295Z,9.45
2023-01-27T07:00:54.037Z,9.02
2023-01-27T07:03:21.382Z,8.75
2023-01-27T07:05:50.247Z,9.13
2023-01-27T07:08:17.157Z,9.40
2023-01-27T07:10:44.513Z,10.05
2023-01-27T07:13:13.563Z,9.18
2023-01-27T07:15:41.128Z,8.40
2023-01-27T07:18:09.618Z,9.13
2023-01-27T07:20:36.560Z,8.73
2023-01-27T07:23:05.425Z,9.25
2023-01-27T07:25:34.683Z,8.48
2023-01-27T07:28:02.644Z,8.55
2023-01-27T07:30:30.305Z,9.20
2023-01-27T07:33:10.013Z,8.95
2023-01-27T07:35:37.798Z,7.95
2023-01-27T07:38:06.429Z,8.70
2023-01-27T07:40:33.451Z,9.05
2023-01-27T07:43:01.892Z,8.25
2023-01-27T07:45:29.698Z,8.57
2023-01-27T07:48:04.717Z,8.60
2023-01-27T07:50:31.947Z,8.10
2023-01-27T07:53:01.010Z,9.32
2023-01-27T07:55:28.802Z,8.07
2023-01-27T07:57:56.400Z,7.57
2023-01-27T08:00:23.699Z,9.32
2023-01-27T08:02:58.361Z,8.38
2023-01-27T08:07:54.046Z,7.53
2023-01-27T08:10:21.655Z,7.55
2023-01-27T08:12:48.712Z,7.93
2023-01-27T08:15:18.723Z,7.72
2023-01-27T08:17:53.728Z,8.60
2023-01-27T08:20:20.659Z,8.73
2023-01-27T08:22:47.473Z,8.38
2023-01-27T08:25:14.447Z,8.15
2023-01-27T08:27:41.573Z,7.85
2023-01-27T08:30:09.306Z,7.95
2023-01-27T08:32:36.202Z,7.50
2023-01-27T08:35:03.640Z,7.60
2023-01-27T08:37:30.548Z,8.02
2023-01-27T08:39:58.869Z,8.13
2023-01-27T08:42:25.836Z,8.32
2023-01-27T08:44:52.799Z,8.70
2023-01-27T08:47:19.695Z,8.02
2023-01-27T08:49:48.058Z,7.50
2023-01-27T08:52:14.981Z,7.05
2023-01-27T08:54:42.117Z,8.10
2023-01-27T08:57:09.259Z,7.18
2023-01-27T08:59:36.191Z,7.32
2023-01-27T09:02:03.174Z,7.40
2023-01-27T09:04:31.298Z,7.80
2023-01-27T09:06:58.236Z,7.93
2023-01-27T09:09:25.235Z,6.68
2023-01-27T09:11:52.226Z,6.63
2023-01-27T09:14:20.298Z,6.32
2023-01-27T09:16:47.185Z,7.35
2023-01-27T09:19:14.101Z,7.13
2023-01-27T09:21:44.139Z,7.47
2023-01-27T09:24:13.566Z,6.85
2023-01-27T09:26:40.517Z,7.05
2023-01-27T09:29:07.480Z,7.35
2023-01-27T09:31:34.395Z,7.03
2023-01-27T09:34:01.389Z,8.15
2023-01-27T09:36:28.891Z,7.00
2023-01-27T09:39:02.628Z,7.25
2023-01-27T09:41:47.922Z,7.45
2023-01-27T09:44:35.995Z,6.60
2023-01-27T09:47:29.639Z,7.05
2023-01-27T09:50:08.739Z,6.85
2023-01-27T09:53:03.635Z,7.50
2023-01-27T09:56:07.986Z,6.78
2023-01-27T09:58:47.572Z,6.97
2023-01-27T10:01:23.601Z,6.70
2023-01-27T10:03:56.671Z,7.00
2023-01-27T10:06:46.878Z,7.22
2023-01-27T10:09:38.670Z,7.38
2023-01-27T10:12:34.013Z,6.82
2023-01-27T10:17:31.310Z,6.78
2023-01-27T10:20:17.512Z,7.68
2023-01-27T10:22:44.470Z,7.13
2023-01-27T10:25:24.967Z,7.93
2023-01-27T10:28:10.379Z,7.20
2023-01-27T10:30:38.620Z,6.95
2023-01-27T10:33:21.908Z,6.95
2023-01-27T10:36:16.583Z,7.45
2023-01-27T10:39:12.760Z,6.90
2023-01-27T10:42:09.612Z,6.40
2023-01-27T10:44:57.012Z,6.93
2023-01-27T10:47:56.382Z,6.57
2023-01-27T10:50:30.512Z,6.88
2023-01-27T10:53:14.294Z,7.22
2023-01-27T10:55:57.430Z,7.55
2023-01-27T10:58:42.663Z,7.32
2023-01-27T11:01:22.799Z,6.90
2023-01-27T11:04:01.255Z,7.10
2023-01-27T11:06:32.558Z,7.20
2023-01-27T11:09:08.824Z,6.95
2023-01-27T11:11:45.558Z,7.45
2023-01-27T11:14:22.764Z,7.43
2023-01-27T11:16:53.379Z,6.90
2023-01-27T11:19:33.879Z,6.88
2023-01-27T11:22:08.108Z,7.80
2023-01-27T11:24:45.620Z,7.55
2023-01-27T11:27:41.699Z,8.02
2023-01-27T11:30:21.788Z,6.78
2023-01-27T11:33:01.066Z,7.95
2023-01-27T11:35:28.329Z,7.13
2023-01-27T11:38:06.317Z,6.85
2023-01-27T11:40:41.845Z,7.47
2023-01-27T11:43:15.858Z,7.95
2023-01-27T11:45:44.966Z,7.57
2023-01-27T11:48:16.094Z,7.28
2023-01-27T11:50:44.945Z,7.63
2023-01-27T11:53:22.879Z,7.30
2023-01-27T11:56:02.611Z,7.05
2023-01-27T11:58:54.788Z,7.25
2023-01-27T12:01:34.228Z,7.00
2023-01-27T12:04:07.378Z,7.82
2023-01-27T12:06:55.509Z,7.53
2023-01-27T12:09:40.160Z,7.68
2023-01-27T12:12:12.167Z,6.82
2023-01-27T12:14:39.331Z,6.90
2023-01-27T12:17:08.666Z,7.18
2023-01-27T12:19:41.389Z,6.93
2023-01-27T12:22:33.992Z,6.93
2023-01-27T12:25:06.066Z,6.82
2023-01-27T12:27:41.274Z,7.25
2023-01-27T12:30:21.594Z,7.32
2023-01-27T12:32:49.490Z,7.28
2023-01-27T12:35:21.917Z,8.88
2023-01-27T12:37:54.656Z,7.93
2023-01-27T12:40:27.756Z,7.68
2023-01-27T12:43:13.913Z,8.35
2023-01-27T12:45:43.471Z,8.02
2023-01-27T12:48:12.911Z,8.75
2023-01-27T12:50:42.072Z,9.23
2023-01-27T12:53:17.490Z,8.88
2023-01-27T12:55:49.773Z,9.82
2023-01-27T12:58:55.236Z,8.65
2023-01-27T13:01:31.443Z,8.85
2023-01-27T13:04:04.970Z,8.85
2023-01-27T13:06:39.501Z,8.68
2023-01-27T13:09:06.463Z,8.88
2023-01-27T13:11:40.312Z,8.73
2023-01-27T13:14:14.271Z,9.10
2023-01-27T13:16:41.205Z,8.60
2023-01-27T13:19:18.259Z,8.98
2023-01-27T13:21:49.610Z,8.52
2023-01-27T13:24:24.542Z,8.05
2023-01-27T13:26:52.490Z,9.88
2023-01-27T13:29:27.206Z,8.13
2023-01-27T13:32:12.048Z,8.63
2023-01-27T13:37:16.310Z,8.13
2023-01-27T13:39:54.763Z,8.43
2023-01-27T13:42:44.059Z,8.55
2023-01-27T13:45:18.643Z,8.20
2023-01-27T13:48:04.790Z,8.77
2023-01-27T13:50:39.274Z,7.72
2023-01-27T13:53:10.591Z,8.23
2023-01-27T13:55:40.301Z,7.90
2023-01-27T13:58:28.810Z,8.82
2023-01-27T14:01:33.045Z,8.02
2023-01-27T14:04:21.457Z,8.15
2023-01-27T14:07:04.846Z,8.45
2023-01-27T14:09:39.828Z,8.27
2023-01-27T14:12:22.484Z,8.20
2023-01-27T14:15:17.143Z,7.03
2023-01-27T14:18:11.033Z,5.20
2023-01-27T14:21:18.343Z,5.30
2023-01-27T14:24:02.352Z,5.57
2023-01-27T14:27:13.924Z,5.60
2023-01-27T14:29:56.122Z,4.85
2023-01-27T14:32:31.757Z,4.78
2023-01-27T14:35:22.937Z,4.45
2023-01-27T14:38:17.335Z,3.53
2023-01-27T14:41:07.536Z,3.00
2023-01-27T14:44:08.780Z,3.38
2023-01-27T14:46:35.811Z,3.75
2023-01-27T14:49:14.721Z,4.03
2023-01-27T14:51:57.720Z,4.30
2023-01-27T14:54:42.944Z,3.13
2023-01-27T14:57:41.126Z,3.35
2023-01-27T15:00:40.722Z,3.15
2023-01-27T15:03:45.397Z,4.20
2023-01-27T15:06:31.401Z,3.83
2023-01-27T15:09:33.281Z,4.00
2023-01-27T15:12:12.572Z,3.30
2023-01-27T15:15:21.860Z,3.33
2023-01-27T15:18:26.127Z,3.13
2023-01-27T15:21:11.192Z,2.33
2023-01-27T15:26:26.062Z,2.85
2023-01-27T15:28:54.562Z,2.75
2023-01-27T15:31:25.490Z,2.60
2023-01-27T15:33:57.664Z,3.13
2023-01-27T15:36:27.435Z,2.90
2023-01-27T15:39:03.412Z,3.25
2023-01-27T15:41:30.475Z,3.03
2023-01-27T15:44:25.871Z,3.53
2023-01-27T15:47:04.344Z,3.90
2023-01-27T15:49:56.660Z,2.85
2023-01-27T15:52:34.761Z,3.05
2023-01-27T15:55:05.637Z,3.35
2023-01-27T15:57:38.154Z,3.40
2023-01-27T16:00:22.260Z,3.70
2023-01-27T16:02:53.634Z,3.80
2023-01-27T16:05:27.010Z,3.25
2023-01-27T16:08:01.398Z,3.58
2023-01-27T16:10:34.840Z,3.22
2023-01-27T16:13:20.528Z,3.47
2023-01-27T16:15:47.713Z,3.13
2023-01-27T16:18:15.272Z,3.50
2023-01-27T16:20:42.162Z,3.10
2023-01-27T16:23:21.302Z,3.70
2023-01-27T16:26:13.951Z,3.58
2023-01-27T16:28:44.745Z,2.72
2023-01-27T16:31:18.823Z,2.60
2023-01-27T16:33:48.656Z,3.63
2023-01-27T16:36:28.710Z,3.13
2023-01-27T16:39:18.502Z,3.17
2023-01-27T16:41:55.359Z,3.53
2023-01-27T16:44:39.033Z,2.90
2023-01-27T16:47:17.154Z,2.33
2023-01-27T16:49:44.504Z,2.88
2023-01-27T16:52:21.254Z,3.25
2023-01-27T16:54:53.294Z,3.63
2023-01-27T16:57:31.830Z,4.07
2023-01-27T17:00:03.076Z,4.13
2023-01-27T17:02:32.297Z,3.85
2023-01-27T17:05:03.261Z,3.95
2023-01-27T17:07:32.118Z,4.05
2023-01-27T17:10:02.737Z,4.15
2023-01-27T17:12:32.927Z,3.60
2023-01-27T17:15:01.398Z,3.97
2023-01-27T17:17:32.406Z,3.35
2023-01-27T17:20:04.438Z,4.10
2023-01-27T17:22:43.969Z,5.05
2023-01-27T17:25:39.502Z,4.68
2023-01-27T17:30:42.427Z,4.78
2023-01-27T17:33:20.206Z,5.05
2023-01-27T17:35:52.886Z,5.32
2023-01-27T17:38:34.950Z,6.25
2023-01-27T17:41:02.154Z,5.90
2023-01-27T17:43:36.132Z,5.82
2023-01-27T17:46:05.974Z,5.25
2023-01-27T17:48:35.096Z,5.85
2023-01-27T17:51:02.128Z,7.07
2023-01-27T17:53:29.449Z,6.72
2023-01-27T17:55:57.047Z,6.65
2023-01-27T17:58:27.084Z,5.90
2023-01-27T18:00:56.034Z,5.80
2023-01-27T18:03:29.857Z,6.38
2023-01-27T18:05:57.218Z,5.43
2023-01-27T18:08:24.306Z,6.35
2023-01-27T18:10:51.978Z,6.18
2023-01-27T18:13:18.906Z,6.18
2023-01-27T18:15:49.967Z,6.30
2023-01-27T18:18:20.093Z,6.57
2023-01-27T18:20:53.880Z,6.63
2023-01-27T18:23:26.615Z,6.80
2023-01-27T18:26:21.467Z,7.22
2023-01-27T18:29:17.978Z,7.38
2023-01-27T18:31:48.082Z,7.03
2023-01-27T18:34:33.227Z,6.82
2023-01-27T18:39:34.723Z,6.68
2023-01-27T18:42:03.138Z,7.45
2023-01-27T18:44:37.221Z,7.68
2023-01-27T18:47:19.526Z,7.72
2023-01-27T18:50:13.063Z,6.65
2023-01-27T18:52:40.514Z,7.53
2023-01-27T18:55:16.469Z,7.25
2023-01-27T18:57:45.318Z,7.30
2023-01-27T19:00:16.613Z,10.05
2023-01-27T19:02:46.579Z,8.45
2023-01-27T19:05:26.533Z,7.63
2023-01-27T19:07:53.588Z,7.97
2023-01-27T19:10:26.012Z,8.95
2023-01-27T19:12:53.213Z,8.80
2023-01-27T19:15:24.142Z,8.40
2023-01-27T19:17:56.068Z,8.13
2023-01-27T19:20:32.056Z,7.97
2023-01-27T19:22:59.116Z,8.55
2023-01-27T19:25:29.683Z,8.77
2023-01-27T19:28:02.224Z,7.75
2023-01-27T19:30:40.946Z,7.63
2023-01-27T19:33:19.834Z,8.25
2023-01-27T19:35:50.922Z,8.52
2023-01-27T19:38:17.905Z,8.10
2023-01-27T19:40:44.947Z,8.13
2023-01-27T19:43:15.419Z,7.50
2023-01-27T19:45:44.304Z,7.85
2023-01-27T19:48:21.798Z,7.25
2023-01-27T19:50:49.732Z,8.75
2023-01-27T19:53:18.746Z,9.10
2023-01-27T19:55:48.031Z,8.90
2023-01-27T19:58:24.937Z,8.32
2023-01-27T20:00:52.716Z,8.77
2023-01-27T20:03:20.026Z,8.23
2023-01-27T20:05:47.175Z,9.18
2023-01-27T20:08:19.597Z,8.57
2023-01-27T20:10:47.171Z,8.70
2023-01-27T20:13:16.654Z,8.25
2023-01-27T20:15:44.446Z,8.48
2023-01-27T20:18:18.794Z,8.15
2023-01-27T20:20:47.228Z,8.70
2023-01-27T20:23:15.120Z,8.63
2023-01-27T20:25:42.309Z,9.10
2023-01-27T20:28:10.374Z,9.80
2023-01-27T20:30:38.839Z,9.82
2023-01-27T20:33:05.912Z,10.10
2023-01-27T20:35:33.590Z,11.77
2023-01-27T20:38:02.599Z,10.02
2023-01-27T20:40:31.439Z,11.25
2023-01-27T20:43:00.831Z,9.40
2023-01-27T20:45:28.006Z,9.50
2023-01-27T20:47:57.234Z,9.38
2023-01-27T20:50:26.154Z,10.43
2023-01-27T20:52:53.503Z,9.77
2023-01-27T20:55:20.486Z,10.35
2023-01-27T20:57:51.939Z,10.57
2023-01-27T21:00:21.095Z,10.15
2023-01-27T21:02:49.050Z,10.00
2023-01-27T21:05:18.185Z,11.00
2023-01-27T21:08:00.690Z,12.13
2023-01-27T21:10:27.743Z,11.80
2023-01-27T21:12:54.693Z,10.60
2023-01-27T21:15:25.828Z,11.52
2023-01-27T21:17:53.504Z,10.75
2023-01-27T21:20:20.690Z,12.43
2023-01-27T21:22:47.645Z,12.30
2023-01-27T21:25:15.418Z,11.68
2023-01-27T21:27:43.576Z,12.30
2023-01-27T21:30:12.227Z,12.43
2023-01-27T21:32:39.157Z,12.18
2023-01-27T21:35:06.683Z,13.27
2023-01-27T21:37:36.053Z,15.02
2023-01-27T21:40:03.902Z,11.25
2023-01-27T21:42:52.079Z,11.10
2023-01-27T21:45:20.876Z,11.65
2023-01-27T21:47:47.960Z,11.73
2023-01-27T21:50:15.134Z,11.15
2023-01-27T21:52:47.860Z,12.43
2023-01-27T21:55:16.670Z,10.77
2023-01-27T21:57:46.008Z,10.13
2023-01-27T22:00:15.134Z,10.57
2023-01-27T22:02:42.970Z,10.35
2023-01-27T22:05:13.580Z,11.07
2023-01-27T22:07:41.827Z,11.48
2023-01-27T22:10:14.497Z,11.40
2023-01-27T22:12:42.140Z,10.52
2023-01-27T22:15:10.419Z,10.63
2023-01-27T22:17:37.505Z,10.45
2023-01-27T22:20:05.375Z,11.82
2023-01-27T22:22:32.280Z,10.52
2023-01-27T22:24:59.171Z,11.18
2023-01-27T22:27:26.115Z,10.90
2023-01-27T22:29:53.012Z,11.23
2023-01-27T22:32:20.102Z,10.07
2023-01-27T22:34:48.034Z,10.43
2023-01-27T22:37:15.056Z,10.25
2023-01-27T22:39:44.681Z,9.77
2023-01-27T22:42:12.201Z,11.07
2023-01-27T22:44:42.483Z,10.40
2023-01-27T22:47:09.760Z,10.70
2023-01-27T22:49:36.669Z,11.00
2023-01-27T22:52:03.757Z,10.88
2023-01-27T22:54:31.176Z,11.05
2023-01-27T22:57:00.741Z,10.45
2023-01-27T22:59:28.051Z,10.82
2023-01-27T23:01:55.226Z,10.20
2023-01-27T23:04:22.416Z,12.48
2023-01-27T23:06:49.409Z,11.00
2023-01-27T23:09:16.340Z,11.02
2023-01-27T23:11:43.307Z,11.02
2023-01-27T23:14:10.281Z,10.73
2023-01-27T23:16:37.309Z,11.75
2023-01-27T23:19:04.334Z,11.27
2023-01-27T23:21:31.776Z,12.18
2023-01-27T23:23:58.880Z,13.90
2023-01-27T23:26:25.852Z,11.60
2023-01-27T23:28:52.895Z,10.82
2023-01-27T23:31:19.877Z,11.15
2023-01-27T23:33:48.211Z,11.73
2023-01-27T23:36:15.269Z,10.60
2023-01-27T23:38:42.273Z,11.70
2023-01-27T23:41:14.610Z,11.32
2023-01-27T23:43:41.623Z,11.48
2023-01-27T23:46:11.392Z,10.85
2023-01-27T23:48:38.780Z,11.15
2023-01-27T23:51:09.313Z,11.45
2023-01-27T23:53:36.289Z,10.70
2023-01-27T23:56:03.619Z,10.35
2023-01-27T23:58:30.769Z,11.60
